« Back
NWS Peachtree City, Ga » Text Product » CSG Terminal Aerodrome Forecast


Printer-friendly Version
Current Version              Previous Versions:   1  2  3  4  5  6  7  8  9  

Terminal Aerodrome Forecast

265
FTUS42 KFFC 041726
TAFCSG
TAF
KCSG 041726Z 0418/0518 28005KT P6SM VCSH SCT050
     FM050200 00000KT P6SM FEW080 FEW250
     FM051500 26005KT P6SM SCT050=

USA.gov is the U.S. government's official web portal to all federal, state and local government web resources and services.